createdAt,value
2018-03-29T00:01:53.754Z,97.62
2018-03-29T00:04:28.540Z,98.06
2018-03-29T00:07:03.755Z,98.10
2018-03-29T00:09:38.750Z,97.59
2018-03-29T00:12:13.758Z,97.43
2018-03-29T00:14:48.210Z,97.47
2018-03-29T00:17:22.920Z,97.89
2018-03-29T00:19:58.019Z,98.28
2018-03-29T00:22:33.155Z,98.01
2018-03-29T00:25:07.795Z,98.02
2018-03-29T00:27:42.842Z,97.86
2018-03-29T00:30:18.032Z,97.93
2018-03-29T00:32:52.758Z,97.99
2018-03-29T00:35:27.261Z,98.03
2018-03-29T00:38:02.072Z,98.06
2018-03-29T00:40:36.987Z,98.28
2018-03-29T00:43:11.883Z,98.17
2018-03-29T00:45:46.811Z,97.94
2018-03-29T00:48:23.230Z,97.58
2018-03-29T00:50:58.264Z,97.40
2018-03-29T00:53:44.166Z,97.19
2018-03-29T00:56:19.068Z,97.25
2018-03-29T00:58:53.931Z,97.22
2018-03-29T01:01:29.087Z,96.65
2018-03-29T01:04:03.703Z,96.48
2018-03-29T01:06:38.816Z,96.46
2018-03-29T01:09:14.280Z,96.38
2018-03-29T01:11:49.326Z,96.25
2018-03-29T01:14:24.190Z,96.45
2018-03-29T01:16:59.219Z,96.55
2018-03-29T01:19:34.155Z,96.94
2018-03-29T01:22:09.204Z,97.15
2018-03-29T01:24:44.035Z,96.70
2018-03-29T01:27:18.791Z,96.44
2018-03-29T01:29:53.494Z,96.21
2018-03-29T01:32:38.566Z,95.67
2018-03-29T01:35:14.388Z,95.22
2018-03-29T01:37:49.592Z,95.44
2018-03-29T01:40:24.606Z,95.19
2018-03-29T01:43:00.068Z,94.93
2018-03-29T01:45:35.043Z,94.62
2018-03-29T01:48:10.015Z,94.92
2018-03-29T01:50:45.172Z,94.72
2018-03-29T01:53:20.386Z,95.11
2018-03-29T01:55:55.212Z,95.22
2018-03-29T01:58:30.371Z,95.12
2018-03-29T02:01:05.155Z,95.30
2018-03-29T02:03:40.107Z,95.00
2018-03-29T02:06:15.070Z,95.00
2018-03-29T02:08:49.638Z,95.18
2018-03-29T02:11:24.519Z,95.50
2018-03-29T02:13:59.724Z,96.06
2018-03-29T02:16:35.019Z,95.93
2018-03-29T02:19:10.119Z,96.04
2018-03-29T02:21:45.190Z,96.29
2018-03-29T02:24:20.998Z,96.46
2018-03-29T02:26:56.189Z,96.73
2018-03-29T02:29:31.460Z,96.67
2018-03-29T02:32:06.328Z,97.13
2018-03-29T02:34:41.316Z,97.74
2018-03-29T02:37:16.327Z,98.21
2018-03-29T02:39:51.263Z,98.55
2018-03-29T02:42:26.211Z,98.58
2018-03-29T02:45:01.233Z,98.44
2018-03-29T02:47:36.759Z,98.31
2018-03-29T02:50:11.729Z,97.65
2018-03-29T02:52:46.450Z,97.34
2018-03-29T02:55:21.599Z,97.03
2018-03-29T02:57:56.344Z,96.30
2018-03-29T03:00:31.344Z,95.31
2018-03-29T03:03:06.816Z,94.95
2018-03-29T03:05:41.524Z,94.42
2018-03-29T03:08:16.618Z,94.13
2018-03-29T03:10:51.491Z,93.78
2018-03-29T03:13:26.390Z,93.90
2018-03-29T03:16:00.959Z,92.98
2018-03-29T03:18:35.764Z,92.87
2018-03-29T03:21:11.228Z,92.65
2018-03-29T03:23:46.243Z,92.91
2018-03-29T03:26:21.467Z,92.99
2018-03-29T03:28:56.515Z,92.92
2018-03-29T03:31:31.583Z,93.15
2018-03-29T03:34:06.783Z,93.80
2018-03-29T03:36:41.655Z,93.85
2018-03-29T03:39:16.655Z,94.14
2018-03-29T03:41:51.771Z,94.30
2018-03-29T03:44:26.660Z,94.08
2018-03-29T03:47:01.551Z,94.56
2018-03-29T03:49:36.535Z,94.94
2018-03-29T03:52:11.540Z,95.33
2018-03-29T03:54:46.771Z,95.59
2018-03-29T03:57:21.567Z,96.13
2018-03-29T03:59:56.532Z,96.74
2018-03-29T04:02:31.536Z,97.18
2018-03-29T04:05:06.290Z,97.48
2018-03-29T04:07:41.515Z,97.61
2018-03-29T04:10:16.615Z,97.62
2018-03-29T04:12:51.314Z,97.52
2018-03-29T04:15:26.690Z,97.63
2018-03-29T04:18:01.663Z,97.76
2018-03-29T04:20:36.573Z,98.13
2018-03-29T04:23:11.575Z,98.38
2018-03-29T04:25:45.994Z,98.16
2018-03-29T04:28:20.704Z,97.97
2018-03-29T04:30:55.667Z,98.33
2018-03-29T04:33:30.478Z,98.06
2018-03-29T04:36:05.207Z,98.01
2018-03-29T04:38:39.931Z,98.07
2018-03-29T04:41:15.403Z,97.85
2018-03-29T04:43:50.089Z,97.32
2018-03-29T04:46:25.523Z,97.88
2018-03-29T04:49:00.015Z,97.51
2018-03-29T04:51:35.016Z,97.01
2018-03-29T04:54:09.851Z,96.41
2018-03-29T04:56:44.924Z,95.89
2018-03-29T04:59:20.014Z,95.74
2018-03-29T05:01:54.873Z,95.56
2018-03-29T05:04:29.724Z,94.87
2018-03-29T05:07:04.714Z,94.16
2018-03-29T05:09:39.754Z,93.43
2018-03-29T05:12:15.071Z,94.27
2018-03-29T05:14:50.698Z,93.19
2018-03-29T05:17:26.279Z,93.17
2018-03-29T05:20:01.895Z,93.49
2018-03-29T05:22:36.843Z,93.96
2018-03-29T05:25:11.706Z,93.89
2018-03-29T05:27:52.035Z,93.95
2018-03-29T05:30:27.322Z,93.69
2018-03-29T05:33:02.611Z,93.72
2018-03-29T05:35:37.798Z,93.64
2018-03-29T05:38:12.911Z,94.00
2018-03-29T05:40:47.837Z,94.35
2018-03-29T05:43:23.209Z,94.63
2018-03-29T05:45:58.023Z,94.51
2018-03-29T05:48:32.875Z,94.54
2018-03-29T05:51:07.893Z,94.87
2018-03-29T05:53:42.799Z,94.75
2018-03-29T05:56:18.051Z,94.38
2018-03-29T05:58:52.963Z,94.39
2018-03-29T06:01:28.083Z,94.49
2018-03-29T06:04:02.964Z,94.60
2018-03-29T06:06:38.786Z,94.34
2018-03-29T06:09:15.322Z,94.23
2018-03-29T06:11:50.205Z,94.03
2018-03-29T06:17:22.415Z,94.01
2018-03-29T06:19:56.851Z,93.77
2018-03-29T06:22:32.006Z,93.88
2018-03-29T06:25:06.470Z,94.03
2018-03-29T06:27:41.455Z,93.72
2018-03-29T06:30:16.852Z,93.70
2018-03-29T06:32:51.868Z,93.25
2018-03-29T06:35:26.637Z,92.98
2018-03-29T06:38:01.245Z,92.77
2018-03-29T06:40:36.263Z,92.87
2018-03-29T06:43:11.216Z,92.78
2018-03-29T06:45:46.063Z,93.07
2018-03-29T06:48:21.188Z,92.80
2018-03-29T06:50:55.990Z,92.82
2018-03-29T06:53:31.651Z,92.33
2018-03-29T06:56:07.195Z,91.86
2018-03-29T06:58:42.226Z,92.18
2018-03-29T07:01:17.358Z,92.04
2018-03-29T07:03:52.043Z,91.81
2018-03-29T07:06:27.031Z,92.20
2018-03-29T07:09:01.845Z,92.21
2018-03-29T07:11:36.978Z,92.26
2018-03-29T07:14:12.486Z,92.07
2018-03-29T07:16:47.415Z,92.01
2018-03-29T07:19:22.461Z,92.32
2018-03-29T07:21:57.272Z,92.40
2018-03-29T07:24:32.219Z,92.28
2018-03-29T07:27:07.160Z,92.11
2018-03-29T07:29:41.556Z,91.53
2018-03-29T07:32:17.198Z,91.59
2018-03-29T07:34:51.614Z,91.93
2018-03-29T07:37:26.654Z,91.87
2018-03-29T07:40:01.400Z,91.77
2018-03-29T07:42:36.199Z,91.76
2018-03-29T07:45:10.754Z,91.53
2018-03-29T07:47:45.399Z,91.55
2018-03-29T07:50:20.044Z,91.36
2018-03-29T07:52:54.584Z,90.74
2018-03-29T07:55:29.548Z,90.15
2018-03-29T07:58:04.312Z,89.71
2018-03-29T08:00:39.207Z,89.40
2018-03-29T08:03:13.661Z,89.83
2018-03-29T08:05:48.654Z,89.67
2018-03-29T08:08:23.510Z,90.05
2018-03-29T08:10:58.430Z,89.97
2018-03-29T08:13:34.119Z,88.31
2018-03-29T08:16:08.887Z,88.65
2018-03-29T08:18:43.643Z,88.58
2018-03-29T08:21:18.030Z,88.97
2018-03-29T08:23:53.340Z,88.62
2018-03-29T08:26:28.515Z,88.89
2018-03-29T08:29:03.751Z,89.17
2018-03-29T08:31:38.455Z,89.12
2018-03-29T08:34:15.772Z,88.74
2018-03-29T08:36:50.447Z,88.91
2018-03-29T08:39:25.679Z,88.49
2018-03-29T08:42:00.663Z,87.96
2018-03-29T08:44:35.540Z,88.02
2018-03-29T08:47:10.607Z,87.75
2018-03-29T08:49:45.503Z,88.39
2018-03-29T08:52:20.467Z,88.44
2018-03-29T08:54:55.265Z,88.21
2018-03-29T08:57:30.010Z,87.86
2018-03-29T09:00:04.910Z,88.39
2018-03-29T09:02:39.721Z,88.89
2018-03-29T09:05:15.831Z,88.91
2018-03-29T09:07:50.723Z,89.38
2018-03-29T09:10:25.623Z,89.84
2018-03-29T09:13:00.570Z,89.22
2018-03-29T09:15:35.616Z,87.82
2018-03-29T09:18:10.503Z,87.46
2018-03-29T09:20:45.470Z,86.29
2018-03-29T09:23:20.933Z,86.19
2018-03-29T09:25:55.638Z,85.35
2018-03-29T09:28:30.637Z,84.18
2018-03-29T09:31:06.463Z,85.55
2018-03-29T09:33:40.922Z,85.22
2018-03-29T09:36:15.907Z,84.86
2018-03-29T09:38:50.608Z,85.64
2018-03-29T09:41:25.675Z,86.34
2018-03-29T09:44:00.172Z,85.66
2018-03-29T09:46:34.768Z,85.74
2018-03-29T09:49:09.766Z,84.07
2018-03-29T09:51:44.677Z,82.90
2018-03-29T09:54:19.863Z,82.05
2018-03-29T09:56:54.798Z,81.22
2018-03-29T09:59:29.891Z,81.79
2018-03-29T10:02:10.435Z,82.64
2018-03-29T10:18:11.036Z,82.32
2018-03-29T10:20:46.396Z,82.51
2018-03-29T10:23:21.911Z,82.83
2018-03-29T10:25:56.519Z,83.45
2018-03-29T10:28:31.671Z,82.50
2018-03-29T10:31:06.699Z,82.17
2018-03-29T10:33:41.183Z,82.40
2018-03-29T10:36:16.300Z,82.78
2018-03-29T10:38:51.784Z,83.63
2018-03-29T10:41:26.786Z,84.37
2018-03-29T10:44:01.391Z,84.82
2018-03-29T10:46:36.292Z,84.28
2018-03-29T10:49:11.435Z,85.61
2018-03-29T10:51:46.809Z,85.72
2018-03-29T10:54:22.259Z,85.70
2018-03-29T10:56:57.319Z,83.70
2018-03-29T10:59:32.962Z,81.69
2018-03-29T11:02:07.377Z,81.54
2018-03-29T11:04:42.195Z,79.60
2018-03-29T11:07:17.174Z,78.67
2018-03-29T11:09:51.955Z,79.15
2018-03-29T11:12:27.077Z,75.02
2018-03-29T11:15:01.855Z,74.82
2018-03-29T11:17:37.154Z,75.45
2018-03-29T11:20:12.048Z,74.10
2018-03-29T11:22:47.035Z,74.71
2018-03-29T11:25:21.946Z,74.92
2018-03-29T11:27:56.974Z,73.77
2018-03-29T11:30:32.984Z,74.82
2018-03-29T11:33:07.927Z,76.99
2018-03-29T11:35:43.060Z,78.47
2018-03-29T11:38:18.279Z,79.27
2018-03-29T11:40:53.075Z,80.31
2018-03-29T11:43:28.261Z,80.27
2018-03-29T11:46:04.071Z,79.07
2018-03-29T11:48:38.984Z,77.80
2018-03-29T11:51:13.609Z,78.45
2018-03-29T11:53:48.647Z,78.24
2018-03-29T11:56:23.341Z,77.90
2018-03-29T11:58:58.113Z,76.97
2018-03-29T12:01:33.255Z,78.21
2018-03-29T12:04:08.112Z,77.73
2018-03-29T12:06:43.099Z,78.72
2018-03-29T12:09:18.411Z,78.99
2018-03-29T12:11:53.146Z,78.44
2018-03-29T12:14:28.399Z,77.37
2018-03-29T12:17:03.155Z,77.37
2018-03-29T12:19:38.106Z,77.86
2018-03-29T12:22:13.268Z,78.26
2018-03-29T12:24:48.150Z,78.48
2018-03-29T12:27:23.442Z,78.34
2018-03-29T12:29:58.012Z,73.85
2018-03-29T12:32:33.163Z,69.53
2018-03-29T12:35:08.088Z,70.17
2018-03-29T12:37:42.474Z,67.99
2018-03-29T12:40:18.315Z,67.59
2018-03-29T12:42:53.244Z,69.44
2018-03-29T12:45:28.488Z,69.97
2018-03-29T12:48:04.011Z,71.13
2018-03-29T12:50:38.798Z,71.16
2018-03-29T12:53:13.783Z,71.05
2018-03-29T12:55:49.172Z,71.32
2018-03-29T12:58:25.078Z,70.92
2018-03-29T13:01:00.108Z,70.51
2018-03-29T13:03:34.767Z,71.86
2018-03-29T13:06:09.723Z,72.62
2018-03-29T13:08:44.502Z,74.43
2018-03-29T13:11:19.732Z,75.98
2018-03-29T13:13:54.062Z,78.29
2018-03-29T13:16:29.535Z,78.97
2018-03-29T13:19:04.235Z,80.18
2018-03-29T13:21:39.339Z,80.57
2018-03-29T13:24:14.335Z,78.36
2018-03-29T13:26:49.802Z,78.82
2018-03-29T13:29:24.624Z,78.82
2018-03-29T13:31:59.776Z,78.19
2018-03-29T13:34:34.775Z,77.17
2018-03-29T13:37:09.656Z,76.68
2018-03-29T13:39:44.723Z,76.31
2018-03-29T13:42:19.611Z,76.34
2018-03-29T13:44:54.531Z,76.55
2018-03-29T13:47:29.591Z,75.35
2018-03-29T13:50:03.890Z,75.70
2018-03-29T13:52:39.443Z,75.84
2018-03-29T13:55:13.843Z,76.42
2018-03-29T13:57:49.395Z,76.28
2018-03-29T14:00:24.692Z,76.90
2018-03-29T14:02:59.859Z,76.41
2018-03-29T14:05:34.848Z,75.56
2018-03-29T14:08:09.547Z,75.26
2018-03-29T14:10:44.590Z,75.72
2018-03-29T14:13:19.619Z,76.67
2018-03-29T14:15:54.441Z,76.13
2018-03-29T14:18:29.510Z,77.75
2018-03-29T14:21:05.323Z,79.04
2018-03-29T14:23:39.995Z,79.99
2018-03-29T14:26:14.883Z,80.75
2018-03-29T14:28:50.027Z,80.81
2018-03-29T14:31:25.067Z,82.71
2018-03-29T14:34:00.476Z,83.85
2018-03-29T14:36:35.378Z,84.29
2018-03-29T14:39:10.483Z,84.52
2018-03-29T14:41:45.150Z,83.55
2018-03-29T14:44:20.662Z,83.74
2018-03-29T14:46:55.643Z,82.11
2018-03-29T14:49:30.685Z,80.95
2018-03-29T14:52:05.591Z,82.35
2018-03-29T14:54:40.471Z,81.37
2018-03-29T14:57:15.239Z,79.97
2018-03-29T14:59:50.694Z,79.54
2018-03-29T15:02:25.901Z,78.00
2018-03-29T15:05:00.663Z,77.86
2018-03-29T15:07:35.623Z,78.26
2018-03-29T15:10:10.863Z,78.30
2018-03-29T15:12:45.750Z,76.82
2018-03-29T15:15:20.927Z,75.72
2018-03-29T15:17:55.779Z,76.18
2018-03-29T15:20:30.745Z,76.23
2018-03-29T15:23:05.666Z,75.69
2018-03-29T15:25:40.663Z,73.99
2018-03-29T15:28:17.012Z,73.18
2018-03-29T15:30:52.783Z,73.69
2018-03-29T15:33:27.787Z,73.48
2018-03-29T15:36:02.771Z,71.87
2018-03-29T15:38:38.411Z,70.44
2018-03-29T15:41:14.703Z,71.24
2018-03-29T15:43:49.883Z,70.09
2018-03-29T15:46:24.974Z,71.32
2018-03-29T15:48:59.906Z,71.01
2018-03-29T15:51:34.894Z,70.17
2018-03-29T15:54:09.855Z,69.82
2018-03-29T15:56:44.971Z,69.88
2018-03-29T15:59:19.995Z,70.61
2018-03-29T16:01:54.864Z,71.45
2018-03-29T16:04:29.872Z,71.97
2018-03-29T16:07:04.759Z,71.46
2018-03-29T16:09:39.862Z,72.15
2018-03-29T16:12:15.151Z,71.18
2018-03-29T16:14:50.052Z,71.64
2018-03-29T16:17:25.124Z,73.00
2018-03-29T16:19:59.982Z,73.20
2018-03-29T16:22:34.861Z,73.96
2018-03-29T16:25:09.880Z,74.07
2018-03-29T16:27:44.863Z,74.22
2018-03-29T16:30:19.590Z,74.67
2018-03-29T16:32:54.503Z,74.81
2018-03-29T16:35:29.386Z,74.52
2018-03-29T16:38:04.883Z,74.06
2018-03-29T16:40:40.866Z,74.65
2018-03-29T16:43:15.524Z,75.31
2018-03-29T16:45:50.920Z,75.75
2018-03-29T16:48:26.199Z,74.78
2018-03-29T16:51:01.099Z,73.53
2018-03-29T16:53:36.127Z,73.87
2018-03-29T16:56:11.477Z,73.96
2018-03-29T16:58:46.064Z,74.63
2018-03-29T17:01:21.503Z,74.41
2018-03-29T17:03:56.266Z,74.27
2018-03-29T17:06:31.492Z,74.03
2018-03-29T17:09:06.119Z,74.41
2018-03-29T17:11:41.113Z,73.32
2018-03-29T17:14:22.736Z,72.64
2018-03-29T17:16:58.156Z,73.10
2018-03-29T17:19:33.458Z,73.23
2018-03-29T17:22:08.495Z,73.21
2018-03-29T17:24:44.007Z,73.07
2018-03-29T17:27:19.382Z,72.22
2018-03-29T17:29:54.330Z,72.27
2018-03-29T17:32:29.450Z,72.28
2018-03-29T17:35:04.167Z,72.31
2018-03-29T17:37:39.153Z,72.23
2018-03-29T17:40:14.478Z,72.31
2018-03-29T17:42:49.583Z,72.29
2018-03-29T17:45:24.691Z,72.33
2018-03-29T17:47:59.526Z,72.67
2018-03-29T17:50:34.722Z,73.04
2018-03-29T17:53:09.322Z,73.40
2018-03-29T17:55:44.136Z,73.82
2018-03-29T17:58:19.406Z,74.27
2018-03-29T18:00:54.361Z,74.72
2018-03-29T18:03:29.877Z,75.12
2018-03-29T18:06:04.815Z,75.52
2018-03-29T18:08:39.424Z,75.87
2018-03-29T18:11:14.720Z,76.10
2018-03-29T18:13:50.298Z,76.41
2018-03-29T18:16:25.555Z,76.61
2018-03-29T18:19:00.311Z,76.77
2018-03-29T18:21:35.763Z,76.97
2018-03-29T18:24:10.846Z,77.40
2018-03-29T18:26:46.433Z,77.65
2018-03-29T18:29:21.244Z,77.83
2018-03-29T18:31:56.320Z,78.41
2018-03-29T18:34:31.523Z,79.44
2018-03-29T18:37:06.570Z,79.98
2018-03-29T18:39:41.743Z,80.45
2018-03-29T18:42:17.569Z,80.85
2018-03-29T18:44:52.856Z,81.19
2018-03-29T18:47:27.487Z,81.40
2018-03-29T18:50:02.399Z,82.76
2018-03-29T18:52:36.918Z,83.50
2018-03-29T18:55:11.616Z,83.98
2018-03-29T18:57:47.427Z,84.54
2018-03-29T19:00:22.355Z,84.79
2018-03-29T19:02:57.603Z,84.65
2018-03-29T19:05:32.851Z,84.77
2018-03-29T19:08:08.415Z,85.02
2018-03-29T19:10:43.544Z,85.51
2018-03-29T19:13:18.999Z,85.79
2018-03-29T19:15:53.515Z,85.89
2018-03-29T19:18:28.919Z,86.00
2018-03-29T19:21:03.855Z,86.22
2018-03-29T19:23:39.042Z,86.27
2018-03-29T19:26:14.448Z,86.23
2018-03-29T19:28:49.866Z,86.17
2018-03-29T19:31:24.886Z,86.38
2018-03-29T19:34:00.021Z,86.56
2018-03-29T19:36:35.227Z,86.55
2018-03-29T19:39:10.194Z,86.60
2018-03-29T19:41:44.924Z,86.56
2018-03-29T19:44:19.959Z,86.55
2018-03-29T19:46:55.686Z,86.91
2018-03-29T19:49:31.006Z,87.20
2018-03-29T19:52:05.727Z,87.32
2018-03-29T19:54:40.830Z,87.60
2018-03-29T19:57:27.798Z,87.80
2018-03-29T20:00:03.077Z,87.81
2018-03-29T20:02:38.410Z,87.77
2018-03-29T20:05:13.786Z,87.73
2018-03-29T20:07:48.795Z,87.76
2018-03-29T20:10:24.056Z,87.74
2018-03-29T20:12:59.631Z,87.77
2018-03-29T20:15:35.299Z,87.69
2018-03-29T20:18:10.324Z,87.51
2018-03-29T20:20:45.806Z,87.42
2018-03-29T20:23:21.014Z,87.34
2018-03-29T20:25:56.187Z,87.38
2018-03-29T20:28:31.200Z,87.40
2018-03-29T20:31:06.497Z,87.31
2018-03-29T20:33:41.838Z,87.16
2018-03-29T20:36:18.183Z,87.14
2018-03-29T20:38:53.253Z,86.99
2018-03-29T20:41:28.223Z,86.76
2018-03-29T20:44:03.584Z,86.92
2018-03-29T20:46:38.355Z,87.14
2018-03-29T20:49:13.848Z,87.29
2018-03-29T20:51:49.128Z,87.38
2018-03-29T20:54:24.111Z,87.40
2018-03-29T20:56:59.000Z,87.33
2018-03-29T20:59:34.203Z,87.39
2018-03-29T21:02:09.974Z,87.70
2018-03-29T21:04:44.707Z,87.88
2018-03-29T21:07:20.135Z,87.93
2018-03-29T21:09:55.272Z,87.94
2018-03-29T21:12:31.083Z,88.04
2018-03-29T21:15:05.514Z,88.23
2018-03-29T21:17:40.182Z,88.54
2018-03-29T21:20:15.231Z,88.58
2018-03-29T21:22:50.370Z,88.58
2018-03-29T21:25:25.390Z,88.68
2018-03-29T21:28:00.423Z,88.86
2018-03-29T21:30:34.878Z,89.03
2018-03-29T21:33:09.398Z,89.19
2018-03-29T21:35:44.417Z,89.34
2018-03-29T21:38:20.047Z,89.42
2018-03-29T21:40:54.662Z,89.45
2018-03-29T21:43:30.006Z,89.63
2018-03-29T21:46:05.206Z,89.95
2018-03-29T21:48:40.293Z,90.85
2018-03-29T21:51:15.331Z,91.19
2018-03-29T21:53:50.575Z,91.68
2018-03-29T21:56:25.504Z,92.03
2018-03-29T21:59:01.172Z,92.39
2018-03-29T22:01:36.360Z,92.43
2018-03-29T22:04:11.390Z,92.36
2018-03-29T22:06:46.414Z,92.35
2018-03-29T22:09:21.922Z,92.32
2018-03-29T22:11:57.267Z,92.23
2018-03-29T22:14:32.446Z,92.15
2018-03-29T22:17:07.339Z,92.01
2018-03-29T22:19:43.214Z,91.88
2018-03-29T22:22:18.575Z,91.71
2018-03-29T22:24:53.703Z,91.48
2018-03-29T22:27:28.226Z,91.36
2018-03-29T22:30:03.362Z,91.34
2018-03-29T22:32:38.697Z,91.47
2018-03-29T22:35:14.226Z,91.60
2018-03-29T22:37:49.294Z,91.69
2018-03-29T22:40:24.396Z,91.75
2018-03-29T22:42:59.090Z,91.71
2018-03-29T22:45:34.239Z,91.62
2018-03-29T22:48:08.456Z,91.69
2018-03-29T22:50:43.396Z,91.78
2018-03-29T22:53:18.682Z,91.78
2018-03-29T22:55:54.243Z,91.75
2018-03-29T22:58:29.334Z,91.83
2018-03-29T23:01:04.041Z,91.91
2018-03-29T23:03:39.283Z,91.94
2018-03-29T23:06:13.479Z,92.04
2018-03-29T23:08:48.418Z,92.07
2018-03-29T23:11:23.690Z,92.07
2018-03-29T23:13:59.319Z,92.47
2018-03-29T23:16:33.898Z,92.65
2018-03-29T23:19:08.958Z,92.70
2018-03-29T23:21:44.316Z,92.64
2018-03-29T23:24:18.595Z,92.82
2018-03-29T23:26:53.331Z,93.41
2018-03-29T23:29:28.490Z,93.62
2018-03-29T23:32:03.444Z,93.68
2018-03-29T23:34:38.054Z,93.71
2018-03-29T23:37:13.117Z,93.87
2018-03-29T23:39:48.441Z,93.79
2018-03-29T23:42:23.843Z,93.65
2018-03-29T23:44:58.939Z,93.62
2018-03-29T23:47:34.561Z,93.68
2018-03-29T23:50:09.523Z,93.66
2018-03-29T23:52:44.905Z,93.62
2018-03-29T23:55:20.482Z,93.76
2018-03-29T23:58:06.624Z,93.96
